createdAt,value
2022-09-06T00:02:21.416Z,99655.19
2022-09-06T00:04:50.118Z,99648.03
2022-09-06T00:07:18.230Z,99655.88
2022-09-06T00:09:47.731Z,99663.28
2022-09-06T00:12:15.787Z,99659.06
2022-09-06T00:14:43.837Z,99658.41
2022-09-06T00:17:12.007Z,99659.19
2022-09-06T00:19:40.181Z,99653.72
2022-09-06T00:22:08.540Z,99649.06
2022-09-06T00:24:37.508Z,99654.53
2022-09-06T00:27:07.868Z,99653.28
2022-09-06T00:29:36.557Z,99654.53
2022-09-06T00:32:05.090Z,99656.56
2022-09-06T00:34:33.155Z,99643.84
2022-09-06T00:37:01.542Z,99647.00
2022-09-06T00:39:29.678Z,99646.22
2022-09-06T00:41:57.805Z,99642.38
2022-09-06T00:44:27.455Z,99643.94
2022-09-06T00:46:56.584Z,99640.75
2022-09-06T00:49:29.427Z,99637.25
2022-09-06T00:52:02.354Z,99635.31
2022-09-06T00:54:30.959Z,99627.59
2022-09-06T00:57:00.388Z,99624.97
2022-09-06T00:59:33.276Z,99628.94
2022-09-06T01:02:01.494Z,99624.28
2022-09-06T01:04:30.876Z,99628.59
2022-09-06T01:07:07.549Z,99639.53
2022-09-06T01:09:51.311Z,99632.44
2022-09-06T01:12:32.586Z,99637.47
2022-09-06T01:15:14.964Z,99639.06
2022-09-06T01:17:57.433Z,99636.66
2022-09-06T01:20:41.431Z,99633.59
2022-09-06T01:23:41.719Z,99630.09
2022-09-06T01:26:33.757Z,99629.72
2022-09-06T01:29:04.548Z,99624.28
2022-09-06T01:31:39.956Z,99627.78
2022-09-06T01:34:23.264Z,99632.44
2022-09-06T01:37:09.324Z,99642.69
2022-09-06T01:39:39.766Z,99642.00
2022-09-06T01:42:11.566Z,99641.66
2022-09-06T01:44:46.818Z,99626.53
2022-09-06T01:47:32.711Z,99632.78
2022-09-06T01:50:45.159Z,99628.13
2022-09-06T01:53:26.530Z,99623.91
2022-09-06T01:56:02.866Z,99629.72
2022-09-06T01:59:13.949Z,99626.53
2022-09-06T02:01:52.382Z,99632.47
2022-09-06T02:04:26.322Z,99631.22
2022-09-06T02:07:00.542Z,99632.31
2022-09-06T02:09:33.012Z,99634.94
2022-09-06T02:12:04.390Z,99632.59
2022-09-06T02:14:36.487Z,99634.16
2022-09-06T02:17:10.095Z,99634.94
2022-09-06T02:19:46.024Z,99631.91
2022-09-06T02:22:19.835Z,99633.47
2022-09-06T02:24:51.116Z,99640.50
2022-09-06T02:27:19.537Z,99633.56
2022-09-06T02:29:47.783Z,99635.19
2022-09-06T02:32:21.224Z,99635.19
2022-09-06T02:34:50.416Z,99636.31
2022-09-06T02:37:19.783Z,99642.91
2022-09-06T02:39:47.995Z,99640.50
2022-09-06T02:42:17.579Z,99639.72
2022-09-06T02:44:45.712Z,99642.44
2022-09-06T02:47:13.812Z,99637.34
2022-09-06T02:49:43.281Z,99641.19
2022-09-06T02:52:12.094Z,99640.41
2022-09-06T02:54:40.156Z,99638.03
2022-09-06T02:57:08.312Z,99648.03
2022-09-06T02:59:36.330Z,99647.81
2022-09-06T03:02:04.516Z,99652.03
2022-09-06T03:04:32.981Z,99651.09
2022-09-06T03:07:02.407Z,99647.50
2022-09-06T03:09:30.628Z,99648.16
2022-09-06T03:11:58.687Z,99652.47
2022-09-06T03:14:26.756Z,99653.63
2022-09-06T03:16:57.829Z,99646.13
2022-09-06T03:19:25.938Z,99654.63
2022-09-06T03:21:54.047Z,99648.72
2022-09-06T03:24:23.447Z,99652.50
2022-09-06T03:26:52.257Z,99652.31
2022-09-06T03:29:20.297Z,99653.34
2022-09-06T03:31:48.434Z,99648.13
2022-09-06T03:34:16.469Z,99649.47
2022-09-06T03:36:44.599Z,99652.53
2022-09-06T03:39:12.627Z,99651.28
2022-09-06T03:41:42.143Z,99660.59
2022-09-06T03:44:10.232Z,99656.28
2022-09-06T03:46:38.440Z,99662.84
2022-09-06T03:49:06.583Z,99655.03
2022-09-06T03:51:34.622Z,99658.09
2022-09-06T03:54:02.674Z,99656.50
2022-09-06T03:56:30.763Z,99657.66
2022-09-06T03:59:00.594Z,99661.50
2022-09-06T04:01:28.889Z,99662.63
2022-09-06T04:03:57.078Z,99657.50
2022-09-06T04:06:25.111Z,99659.13
2022-09-06T04:08:53.099Z,99665.00
2022-09-06T04:11:21.183Z,99667.41
2022-09-06T04:13:49.284Z,99669.91
2022-09-06T04:16:18.910Z,99671.28
2022-09-06T04:18:47.047Z,99671.19
2022-09-06T04:21:15.145Z,99673.63
2022-09-06T04:23:43.245Z,99666.91
2022-09-06T04:26:11.298Z,99670.66
2022-09-06T04:28:39.309Z,99678.16
2022-09-06T04:31:07.407Z,99673.50
2022-09-06T04:33:38.316Z,99673.28
2022-09-06T04:36:09.543Z,99670.78
2022-09-06T04:38:39.803Z,99667.38
2022-09-06T04:41:08.711Z,99669.75
2022-09-06T04:43:36.957Z,99671.78
2022-09-06T04:46:08.352Z,99677.22
2022-09-06T04:48:37.791Z,99667.94
2022-09-06T04:51:06.104Z,99671.78
2022-09-06T04:53:34.191Z,99676.91
2022-09-06T04:56:02.345Z,99683.63
2022-09-06T04:58:30.908Z,99678.25
2022-09-06T05:00:59.021Z,99683.03
2022-09-06T05:03:27.237Z,99673.47
2022-09-06T05:06:05.398Z,99679.84
2022-09-06T05:08:33.467Z,99676.50
2022-09-06T05:11:01.532Z,99667.63
2022-09-06T05:13:29.590Z,99661.94
2022-09-06T05:15:57.661Z,99673.88
2022-09-06T05:18:25.842Z,99673.59
2022-09-06T05:20:54.240Z,99670.63
2022-09-06T05:23:23.801Z,99676.69
2022-09-06T05:25:51.904Z,99673.81
2022-09-06T05:28:20.270Z,99681.06
2022-09-06T05:30:48.661Z,99676.50
2022-09-06T05:33:22.684Z,99682.16
2022-09-06T05:35:50.959Z,99682.00
2022-09-06T05:38:18.948Z,99683.00
2022-09-06T05:40:48.596Z,99686.72
2022-09-06T05:43:16.640Z,99691.56
2022-09-06T05:45:45.443Z,99696.41
2022-09-06T05:48:13.559Z,99699.34
2022-09-06T05:50:41.532Z,99698.41
2022-09-06T05:53:09.638Z,99696.09
2022-09-06T05:55:42.338Z,99699.63
2022-09-06T05:58:12.962Z,99696.38
2022-09-06T06:00:41.018Z,99699.34
2022-09-06T06:03:09.033Z,99698.41
2022-09-06T06:05:37.028Z,99688.41
2022-09-06T06:08:05.043Z,99688.84
2022-09-06T06:10:36.665Z,99688.84
2022-09-06T06:13:06.655Z,99687.38
2022-09-06T06:15:36.076Z,99697.72
2022-09-06T06:18:04.165Z,99688.81
2022-09-06T06:20:32.367Z,99688.72
2022-09-06T06:23:00.447Z,99683.34
2022-09-06T06:25:28.483Z,99685.47
2022-09-06T06:27:56.566Z,99683.69
2022-09-06T06:30:24.660Z,99685.09
2022-09-06T06:32:54.027Z,99692.31
2022-09-06T06:35:22.178Z,99695.19
2022-09-06T06:37:50.210Z,99686.72
2022-09-06T06:40:18.224Z,99684.22
2022-09-06T06:42:46.403Z,99688.06
2022-09-06T06:45:14.549Z,99693.97
2022-09-06T06:47:42.581Z,99700.59
2022-09-06T06:50:12.226Z,99688.84
2022-09-06T06:52:41.318Z,99683.53
2022-09-06T06:55:10.363Z,99687.13
2022-09-06T06:57:38.357Z,99684.31
2022-09-06T07:00:07.395Z,99685.34
2022-09-06T07:02:35.670Z,99694.97
2022-09-06T07:07:53.282Z,99688.47
2022-09-06T07:10:36.798Z,99688.63
2022-09-06T07:13:04.999Z,99689.56
2022-09-06T07:15:33.069Z,99684.56
2022-09-06T07:18:01.576Z,99690.50
2022-09-06T07:20:29.799Z,99680.72
2022-09-06T07:25:53.102Z,99682.66
2022-09-06T07:28:21.431Z,99678.25
2022-09-06T07:30:49.597Z,99679.28
2022-09-06T07:33:17.854Z,99679.88
2022-09-06T07:35:56.426Z,99690.75
2022-09-06T07:38:25.933Z,99685.25
2022-09-06T07:40:57.558Z,99693.06
2022-09-06T07:43:26.582Z,99687.44
2022-09-06T07:46:02.078Z,99694.31
2022-09-06T07:48:31.693Z,99694.16
2022-09-06T07:51:07.567Z,99697.28
2022-09-06T07:53:38.431Z,99685.06
2022-09-06T07:56:08.418Z,99679.19
2022-09-06T07:58:37.021Z,99678.72
2022-09-06T08:01:34.407Z,99673.47
2022-09-06T08:04:03.902Z,99675.72
2022-09-06T08:09:24.116Z,99675.06
2022-09-06T08:11:52.864Z,99674.72
2022-09-06T08:14:21.152Z,99678.00
2022-09-06T08:16:49.188Z,99671.00
2022-09-06T08:19:18.529Z,99671.84
2022-09-06T08:21:46.637Z,99668.72
2022-09-06T08:24:14.687Z,99673.06
2022-09-06T08:26:44.153Z,99669.13
2022-09-06T08:29:13.503Z,99661.69
2022-09-06T08:31:43.637Z,99658.13
2022-09-06T08:34:12.707Z,99659.31
2022-09-06T08:36:41.292Z,99661.72
2022-09-06T08:39:11.011Z,99646.72
2022-09-06T08:41:53.526Z,99641.97
2022-09-06T08:47:14.475Z,99652.22
2022-09-06T08:49:45.048Z,99646.69
2022-09-06T08:53:13.302Z,99645.91
2022-09-06T08:55:43.997Z,99646.72
2022-09-06T08:58:26.793Z,99640.78
2022-09-06T09:00:59.583Z,99642.38
2022-09-06T09:03:33.578Z,99634.09
2022-09-06T09:06:05.403Z,99634.09
2022-09-06T09:08:40.993Z,99631.72
2022-09-06T09:11:12.565Z,99625.81
2022-09-06T09:13:51.117Z,99630.94
2022-09-06T09:16:20.341Z,99629.34
2022-09-06T09:18:53.074Z,99621.03
2022-09-06T09:21:26.778Z,99618.25
2022-09-06T09:24:00.096Z,99618.25
2022-09-06T09:26:32.501Z,99614.28
2022-09-06T09:29:10.147Z,99608.34
2022-09-06T09:31:40.876Z,99610.31
2022-09-06T09:34:14.035Z,99615.47
2022-09-06T09:39:37.205Z,99606.38
2022-09-06T09:42:06.143Z,99605.13
2022-09-06T09:44:35.699Z,99601.13
2022-09-06T09:47:23.144Z,99602.63
2022-09-06T09:49:51.405Z,99597.41
2022-09-06T09:52:26.204Z,99596.94
2022-09-06T09:54:58.831Z,99599.59
2022-09-06T09:57:26.949Z,99597.16
2022-09-06T09:59:58.341Z,99591.50
2022-09-06T10:02:29.474Z,99584.25
2022-09-06T10:05:03.271Z,99584.88
2022-09-06T10:07:34.024Z,99572.94
2022-09-06T10:10:05.158Z,99589.84
2022-09-06T10:12:34.810Z,99583.78
2022-09-06T10:15:07.083Z,99583.31
2022-09-06T10:17:37.460Z,99569.88
2022-09-06T10:20:09.285Z,99566.66
2022-09-06T10:22:52.034Z,99572.28
2022-09-06T10:25:49.018Z,99565.94
2022-09-06T10:28:32.371Z,99566.59
2022-09-06T10:31:37.920Z,99568.69
2022-09-06T10:34:34.809Z,99556.34
2022-09-06T10:37:15.294Z,99559.47
2022-09-06T10:39:50.501Z,99553.91
2022-09-06T10:42:29.684Z,99548.88
2022-09-06T10:45:16.650Z,99553.94
2022-09-06T10:47:56.948Z,99550.53
2022-09-06T10:50:32.248Z,99546.00
2022-09-06T10:53:08.079Z,99548.75
2022-09-06T10:55:40.247Z,99548.22
2022-09-06T11:00:47.748Z,99545.72
2022-09-06T11:06:11.552Z,99541.03
2022-09-06T11:08:49.045Z,99546.16
2022-09-06T11:11:23.290Z,99539.41
2022-09-06T11:13:51.618Z,99540.38
2022-09-06T11:16:26.372Z,99527.66
2022-09-06T11:18:59.783Z,99530.09
2022-09-06T11:22:15.205Z,99531.84
2022-09-06T11:24:59.879Z,99521.81
2022-09-06T11:27:34.753Z,99525.44
2022-09-06T11:30:06.003Z,99515.13
2022-09-06T11:32:39.054Z,99517.66
2022-09-06T11:35:11.255Z,99519.38
2022-09-06T11:37:42.957Z,99520.63
2022-09-06T11:40:28.179Z,99516.22
2022-09-06T11:43:13.117Z,99514.28
2022-09-06T11:45:44.197Z,99509.53
2022-09-06T11:48:36.657Z,99501.41
2022-09-06T11:51:11.006Z,99505.50
2022-09-06T11:54:06.683Z,99499.94
2022-09-06T11:56:44.254Z,99502.22
2022-09-06T11:59:27.816Z,99501.06
2022-09-06T12:02:03.038Z,99497.47
2022-09-06T12:05:09.623Z,99495.84
2022-09-06T12:07:40.766Z,99492.97
2022-09-06T12:10:42.092Z,99488.00
2022-09-06T12:13:34.907Z,99488.81
2022-09-06T12:16:03.200Z,99486.91
2022-09-06T12:18:56.991Z,99481.16
2022-09-06T12:21:40.363Z,99481.09
2022-09-06T12:24:30.990Z,99479.50
2022-09-06T12:27:16.838Z,99474.34
2022-09-06T12:29:58.159Z,99472.50
2022-09-06T12:32:33.706Z,99475.13
2022-09-06T12:37:58.410Z,99461.34
2022-09-06T12:40:28.557Z,99460.16
2022-09-06T12:42:59.322Z,99451.31
2022-09-06T12:45:27.855Z,99454.44
2022-09-06T12:48:07.303Z,99450.72
2022-09-06T12:50:35.516Z,99459.78
2022-09-06T12:53:20.400Z,99451.19
2022-09-06T12:55:50.721Z,99450.22
2022-09-06T12:58:29.662Z,99443.41
2022-09-06T13:01:12.529Z,99441.00
2022-09-06T13:03:45.802Z,99441.44
2022-09-06T13:06:24.521Z,99445.53
2022-09-06T13:08:57.125Z,99447.09
2022-09-06T13:11:30.708Z,99443.97
2022-09-06T13:14:00.686Z,99441.69
2022-09-06T13:16:36.001Z,99446.69
2022-09-06T13:19:13.937Z,99440.50
2022-09-06T13:21:43.554Z,99436.16
2022-09-06T13:24:23.982Z,99440.53
2022-09-06T13:26:52.984Z,99432.06
2022-09-06T13:29:27.044Z,99434.09
2022-09-06T13:31:57.200Z,99445.22
2022-09-06T13:34:27.617Z,99432.19
2022-09-06T13:37:00.811Z,99426.72
2022-09-06T13:39:34.096Z,99435.34
2022-09-06T13:42:05.741Z,99433.38
2022-09-06T13:44:37.016Z,99431.03
2022-09-06T13:47:05.567Z,99428.47
2022-09-06T13:49:34.177Z,99427.69
2022-09-06T13:52:04.170Z,99429.22
2022-09-06T13:54:33.617Z,99432.03
2022-09-06T13:57:02.097Z,99434.41
2022-09-06T13:59:31.643Z,99434.66
2022-09-06T14:02:05.114Z,99424.69
2022-09-06T14:04:33.215Z,99424.81
2022-09-06T14:07:01.435Z,99428.03
2022-09-06T14:09:30.057Z,99416.94
2022-09-06T14:11:58.229Z,99412.25
2022-09-06T14:14:26.425Z,99424.34
2022-09-06T14:16:54.948Z,99412.19
2022-09-06T14:19:24.786Z,99416.28
2022-09-06T14:21:52.909Z,99414.69
2022-09-06T14:24:21.054Z,99420.66
2022-09-06T14:26:49.199Z,99414.25
2022-09-06T14:29:17.250Z,99425.59
2022-09-06T14:31:45.301Z,99426.75
2022-09-06T14:34:13.304Z,99422.78
2022-09-06T14:36:42.921Z,99422.75
2022-09-06T14:39:11.076Z,99413.97
2022-09-06T14:41:39.206Z,99420.88
2022-09-06T14:44:07.673Z,99417.66
2022-09-06T14:46:36.145Z,99420.44
2022-09-06T14:49:07.430Z,99417.47
2022-09-06T14:51:37.199Z,99410.88
2022-09-06T14:54:09.207Z,99405.38
2022-09-06T14:56:39.706Z,99406.69
2022-09-06T14:59:09.195Z,99404.06
2022-09-06T15:01:38.754Z,99410.72
2022-09-06T15:04:09.248Z,99398.97
2022-09-06T15:06:40.290Z,99394.63
2022-09-06T15:09:11.600Z,99385.97
2022-09-06T15:11:41.503Z,99389.50
2022-09-06T15:14:15.114Z,99385.19
2022-09-06T15:16:43.330Z,99387.38
2022-09-06T15:19:11.554Z,99382.44
2022-09-06T15:21:39.833Z,99385.69
2022-09-06T15:24:12.114Z,99382.63
2022-09-06T15:26:40.948Z,99378.78
2022-09-06T15:29:09.706Z,99383.41
2022-09-06T15:31:38.484Z,99380.31
2022-09-06T15:34:06.693Z,99379.56
2022-09-06T15:36:34.838Z,99384.44
2022-09-06T15:39:04.512Z,99383.44
2022-09-06T15:41:39.185Z,99380.59
2022-09-06T15:44:10.054Z,99378.78
2022-09-06T15:46:46.807Z,99384.63
2022-09-06T15:49:17.519Z,99375.53
2022-09-06T15:51:45.767Z,99376.56
2022-09-06T15:54:16.250Z,99375.97
2022-09-06T15:56:46.121Z,99368.72
2022-09-06T15:59:14.495Z,99375.50
2022-09-06T16:01:42.755Z,99366.75
2022-09-06T16:04:11.417Z,99370.34
2022-09-06T16:06:42.126Z,99378.06
2022-09-06T16:09:13.749Z,99371.38
2022-09-06T16:11:42.194Z,99372.13
2022-09-06T16:14:13.807Z,99365.06
2022-09-06T16:16:42.467Z,99357.09
2022-09-06T16:19:11.831Z,99359.75
2022-09-06T16:21:41.696Z,99357.16
2022-09-06T16:24:12.119Z,99350.31
2022-09-06T16:26:42.252Z,99351.22
2022-09-06T16:29:13.594Z,99343.56
2022-09-06T16:31:42.019Z,99343.75
2022-09-06T16:34:10.431Z,99341.19
2022-09-06T16:36:38.981Z,99336.25
2022-09-06T16:39:07.616Z,99335.88
2022-09-06T16:41:40.464Z,99328.44
2022-09-06T16:44:09.433Z,99323.81
2022-09-06T16:46:40.227Z,99326.19
2022-09-06T16:49:08.629Z,99315.38
2022-09-06T16:51:37.173Z,99327.38
2022-09-06T16:54:05.553Z,99326.13
2022-09-06T16:56:36.017Z,99331.75
2022-09-06T16:59:06.434Z,99327.81
2022-09-06T17:01:35.204Z,99328.16
2022-09-06T17:04:06.790Z,99323.59
2022-09-06T17:06:42.217Z,99328.06
2022-09-06T17:09:10.471Z,99328.16
2022-09-06T17:11:40.249Z,99329.81
2022-09-06T17:14:08.665Z,99330.25
2022-09-06T17:16:54.377Z,99345.66
2022-09-06T17:19:23.893Z,99338.94
2022-09-06T17:21:52.191Z,99339.31
2022-09-06T17:24:20.394Z,99334.94
2022-09-06T17:26:48.494Z,99338.03
2022-09-06T17:29:16.711Z,99333.69
2022-09-06T17:31:44.909Z,99339.94
2022-09-06T17:34:13.014Z,99347.75
2022-09-06T17:36:42.625Z,99352.84
2022-09-06T17:39:13.974Z,99356.69
2022-09-06T17:41:45.605Z,99357.03
2022-09-06T17:44:16.726Z,99365.16
2022-09-06T17:46:57.398Z,99367.84
2022-09-06T17:49:31.556Z,99371.75
2022-09-06T17:52:01.028Z,99368.19
2022-09-06T17:54:29.798Z,99373.66
2022-09-06T17:56:57.998Z,99376.34
2022-09-06T17:59:26.095Z,99388.06
2022-09-06T18:01:54.189Z,99378.19
2022-09-06T18:04:22.333Z,99386.38
2022-09-06T18:06:50.505Z,99390.63
2022-09-06T18:09:20.042Z,99391.78
2022-09-06T18:11:48.158Z,99396.81
2022-09-06T18:14:18.777Z,99398.69
2022-09-06T18:16:49.080Z,99404.47
2022-09-06T18:19:18.835Z,99395.75
2022-09-06T18:21:47.705Z,99393.66
2022-09-06T18:24:16.333Z,99395.56
2022-09-06T18:26:49.173Z,99393.84
2022-09-06T18:29:18.540Z,99401.22
2022-09-06T18:31:47.238Z,99399.91
2022-09-06T18:34:16.560Z,99405.31
2022-09-06T18:36:44.658Z,99403.97
2022-09-06T18:39:13.408Z,99412.13
2022-09-06T18:41:59.117Z,99413.59
2022-09-06T18:44:33.112Z,99415.06
2022-09-06T18:47:02.254Z,99407.97
2022-09-06T18:49:32.518Z,99403.22
2022-09-06T18:52:01.273Z,99402.00
2022-09-06T18:54:29.578Z,99402.75
2022-09-06T18:56:58.111Z,99404.28
2022-09-06T18:59:26.674Z,99402.69
2022-09-06T19:01:56.333Z,99406.97
2022-09-06T19:04:24.604Z,99401.41
2022-09-06T19:06:52.715Z,99407.16
2022-09-06T19:09:20.873Z,99403.88
2022-09-06T19:11:51.722Z,99400.66
2022-09-06T19:14:20.475Z,99408.41
2022-09-06T19:16:50.225Z,99405.91
2022-09-06T19:19:21.392Z,99409.66
2022-09-06T19:21:49.527Z,99407.22
2022-09-06T19:24:17.675Z,99410.94
2022-09-06T19:26:46.983Z,99408.00
2022-09-06T19:29:17.209Z,99394.53
2022-09-06T19:31:46.226Z,99403.78
2022-09-06T19:34:15.662Z,99394.66
2022-09-06T19:36:45.973Z,99391.78
2022-09-06T19:39:16.829Z,99406.97
2022-09-06T19:41:47.369Z,99398.69
2022-09-06T19:44:16.381Z,99398.63
2022-09-06T19:46:46.771Z,99395.03
2022-09-06T19:49:16.994Z,99398.78
2022-09-06T19:51:48.780Z,99404.06
2022-09-06T19:54:17.459Z,99407.44
2022-09-06T19:56:46.458Z,99409.31
2022-09-06T19:59:16.235Z,99413.13
2022-09-06T20:01:46.416Z,99404.50
2022-09-06T20:04:15.801Z,99407.59
2022-09-06T20:06:44.011Z,99401.66
2022-09-06T20:09:15.458Z,99394.69
2022-09-06T20:11:43.817Z,99402.63
2022-09-06T20:14:13.175Z,99394.13
2022-09-06T20:16:42.730Z,99396.50
2022-09-06T20:19:13.144Z,99393.88
2022-09-06T20:21:41.589Z,99392.34
2022-09-06T20:24:10.168Z,99386.19
2022-09-06T20:26:40.458Z,99393.22
2022-09-06T20:29:08.816Z,99390.94
2022-09-06T20:31:38.631Z,99405.03
2022-09-06T20:34:07.639Z,99405.91
2022-09-06T20:36:36.018Z,99399.72
2022-09-06T20:39:04.266Z,99400.50
2022-09-06T20:41:33.859Z,99405.19
2022-09-06T20:44:03.881Z,99410.66
2022-09-06T20:46:33.941Z,99406.41
2022-09-06T20:49:04.740Z,99403.72
2022-09-06T20:51:33.958Z,99408.47
2022-09-06T20:54:03.609Z,99407.75
2022-09-06T20:56:34.909Z,99396.09
2022-09-06T20:59:06.420Z,99391.44
2022-09-06T21:01:36.249Z,99391.44
2022-09-06T21:04:06.912Z,99391.44
2022-09-06T21:06:36.673Z,99397.59
2022-09-06T21:09:05.801Z,99411.22
2022-09-06T21:11:34.315Z,99416.91
2022-09-06T21:14:02.556Z,99426.31
2022-09-06T21:16:32.450Z,99425.56
2022-09-06T21:19:02.634Z,99430.09
2022-09-06T21:21:31.907Z,99415.91
2022-09-06T21:24:01.596Z,99419.38
2022-09-06T21:26:30.600Z,99415.75
2022-09-06T21:28:59.072Z,99411.72
2022-09-06T21:31:28.816Z,99418.59
2022-09-06T21:34:00.081Z,99410.69
2022-09-06T21:36:30.236Z,99414.91
2022-09-06T21:39:00.228Z,99408.13
2022-09-06T21:41:29.174Z,99403.31
2022-09-06T21:43:58.556Z,99409.81
2022-09-06T21:46:32.668Z,99404.63
2022-09-06T21:49:05.084Z,99403.31
2022-09-06T21:51:33.596Z,99399.72
2022-09-06T21:54:05.573Z,99404.25
2022-09-06T21:56:35.938Z,99406.91
2022-09-06T21:59:05.460Z,99402.84
2022-09-06T22:01:35.507Z,99402.75
2022-09-06T22:04:06.070Z,99409.28
2022-09-06T22:06:35.680Z,99411.13
2022-09-06T22:09:12.179Z,99409.88
2022-09-06T22:11:41.551Z,99419.94
2022-09-06T22:14:11.716Z,99411.13
2022-09-06T22:16:41.260Z,99417.97
2022-09-06T22:19:11.648Z,99410.03
2022-09-06T22:21:39.805Z,99414.25
2022-09-06T22:24:09.316Z,99400.53
2022-09-06T22:26:39.073Z,99407.34
2022-09-06T22:29:09.084Z,99411.16
2022-09-06T22:31:38.004Z,99407.97
2022-09-06T22:34:06.529Z,99409.22
2022-09-06T22:36:35.988Z,99410.00
2022-09-06T22:39:04.096Z,99407.28
2022-09-06T22:41:33.996Z,99407.28
2022-09-06T22:44:03.198Z,99406.47
2022-09-06T22:46:31.540Z,99406.81
2022-09-06T22:48:59.712Z,99398.22
2022-09-06T22:51:27.943Z,99398.53
2022-09-06T22:53:57.368Z,99393.78
2022-09-06T22:56:25.597Z,99391.75
2022-09-06T22:58:53.743Z,99390.53
2022-09-06T23:01:21.849Z,99389.28
2022-09-06T23:03:50.822Z,99390.69
2022-09-06T23:06:18.984Z,99392.31
2022-09-06T23:08:47.070Z,99392.09
2022-09-06T23:11:17.996Z,99376.41
2022-09-06T23:13:47.260Z,99388.13
2022-09-06T23:16:17.403Z,99385.72
2022-09-06T23:18:46.031Z,99383.25
2022-09-06T23:21:17.063Z,99382.34
2022-09-06T23:23:45.719Z,99382.69
2022-09-06T23:26:17.370Z,99379.09
2022-09-06T23:28:46.094Z,99376.94
2022-09-06T23:31:16.168Z,99373.31
2022-09-06T23:33:44.843Z,99377.19
2022-09-06T23:36:14.863Z,99375.94
2022-09-06T23:38:43.952Z,99374.34
2022-09-06T23:41:13.329Z,99385.59
2022-09-06T23:43:44.060Z,99379.69
2022-09-06T23:46:14.605Z,99381.16
2022-09-06T23:48:43.545Z,99382.63
2022-09-06T23:51:12.206Z,99380.28
2022-09-06T23:53:40.708Z,99380.28
2022-09-06T23:56:08.822Z,99376.31
2022-09-06T23:58:37.376Z,99372.00
